createdAt,value
2022-08-08T00:00:59.887Z,18.40
2022-08-08T00:03:32.731Z,18.30
2022-08-08T00:06:33.859Z,18.30
2022-08-08T00:09:41.987Z,18.20
2022-08-08T00:12:13.191Z,18.20
2022-08-08T00:15:00.017Z,18.20
2022-08-08T00:17:54.364Z,18.20
2022-08-08T00:20:28.773Z,18.10
2022-08-08T00:23:02.522Z,18.10
2022-08-08T00:25:46.754Z,18.10
2022-08-08T00:28:35.315Z,18.00
2022-08-08T00:32:15.206Z,18.00
2022-08-08T00:34:33.699Z,18.00
2022-08-08T00:37:45.043Z,17.90
2022-08-08T00:41:11.653Z,17.90
2022-08-08T00:43:46.043Z,17.90
2022-08-08T00:46:32.049Z,17.90
2022-08-08T00:49:42.293Z,17.90
2022-08-08T00:52:19.713Z,17.80
2022-08-08T00:55:16.792Z,17.80
2022-08-08T00:58:03.807Z,17.80
2022-08-08T01:01:38.013Z,17.80
2022-08-08T01:04:29.801Z,17.90
2022-08-08T01:07:55.853Z,17.90
2022-08-08T01:11:08.035Z,17.80
2022-08-08T01:13:58.101Z,17.90
2022-08-08T01:16:49.629Z,17.80
2022-08-08T01:20:03.018Z,17.70
2022-08-08T01:23:00.832Z,17.70
2022-08-08T01:25:55.780Z,17.70
2022-08-08T01:28:51.285Z,17.70
2022-08-08T01:32:13.403Z,17.70
2022-08-08T01:35:19.395Z,17.70
2022-08-08T01:38:07.759Z,17.70
2022-08-08T01:41:16.177Z,17.70
2022-08-08T01:43:50.576Z,17.70
2022-08-08T01:46:39.934Z,17.60
2022-08-08T01:49:37.258Z,17.60
2022-08-08T01:52:54.787Z,17.60
2022-08-08T01:56:29.130Z,17.60
2022-08-08T02:00:02.117Z,17.50
2022-08-08T02:02:34.435Z,17.40
2022-08-08T02:05:55.780Z,17.30
2022-08-08T02:08:46.988Z,17.30
2022-08-08T02:11:58.719Z,17.30
2022-08-08T02:14:55.983Z,17.30
2022-08-08T02:17:50.392Z,17.40
2022-08-08T02:21:02.171Z,17.30
2022-08-08T02:23:31.554Z,17.30
2022-08-08T02:26:15.815Z,17.20
2022-08-08T02:28:48.160Z,17.10
2022-08-08T02:31:58.574Z,17.10
2022-08-08T02:35:07.476Z,17.00
2022-08-08T02:37:52.411Z,16.90
2022-08-08T02:40:33.610Z,17.00
2022-08-08T02:44:37.907Z,17.10
2022-08-08T02:46:17.794Z,17.00
2022-08-08T02:49:18.658Z,17.10
2022-08-08T02:52:34.751Z,17.00
2022-08-08T02:55:21.477Z,17.00
2022-08-08T02:58:15.080Z,17.00
2022-08-08T03:00:57.175Z,17.00
2022-08-08T03:05:00.325Z,17.00
2022-08-08T03:06:35.586Z,17.00
2022-08-08T03:09:21.556Z,17.00
2022-08-08T03:12:14.204Z,16.90
2022-08-08T03:15:59.222Z,16.80
2022-08-08T03:18:04.818Z,16.80
2022-08-08T03:20:42.976Z,16.80
2022-08-08T03:23:17.804Z,16.80
2022-08-08T03:25:46.720Z,16.80
2022-08-08T03:28:21.820Z,16.80
2022-08-08T03:30:49.334Z,16.90
2022-08-08T03:33:56.289Z,16.90
2022-08-08T03:36:27.438Z,16.90
2022-08-08T03:39:07.474Z,16.90
2022-08-08T03:42:28.596Z,16.80
2022-08-08T03:44:35.388Z,16.70
2022-08-08T03:47:13.966Z,16.70
2022-08-08T03:49:59.752Z,16.70
2022-08-08T03:52:30.679Z,16.80
2022-08-08T03:55:10.087Z,16.80
2022-08-08T03:58:32.413Z,16.80
2022-08-08T04:00:56.392Z,16.80
2022-08-08T04:03:58.370Z,16.80
2022-08-08T04:06:21.652Z,16.80
2022-08-08T04:08:48.362Z,16.80
2022-08-08T04:11:17.384Z,16.80
2022-08-08T04:14:03.541Z,16.90
2022-08-08T04:16:38.636Z,16.90
2022-08-08T04:19:24.981Z,16.80
2022-08-08T04:21:54.353Z,16.80
2022-08-08T04:24:29.698Z,16.70
2022-08-08T04:26:59.276Z,16.80
2022-08-08T04:29:27.187Z,16.70
2022-08-08T04:31:58.915Z,16.80
2022-08-08T04:34:31.720Z,16.70
2022-08-08T04:36:58.750Z,16.70
2022-08-08T04:40:03.880Z,16.80
2022-08-08T04:42:15.894Z,16.90
2022-08-08T04:44:47.549Z,16.80
2022-08-08T04:47:14.999Z,16.80
2022-08-08T04:50:00.391Z,16.80
2022-08-08T04:52:33.598Z,16.90
2022-08-08T04:55:01.456Z,17.00
2022-08-08T04:57:28.734Z,17.00
2022-08-08T04:59:59.446Z,17.00
2022-08-08T05:02:30.785Z,17.00
2022-08-08T05:04:59.386Z,17.00
2022-08-08T05:07:26.950Z,17.10
2022-08-08T05:10:05.546Z,17.00
2022-08-08T05:12:36.673Z,17.10
2022-08-08T05:15:04.576Z,17.10
2022-08-08T05:17:54.025Z,17.20
2022-08-08T05:20:18.935Z,17.20
2022-08-08T05:22:46.106Z,17.30
2022-08-08T05:25:16.505Z,17.30
2022-08-08T05:27:48.055Z,17.40
2022-08-08T05:30:15.101Z,17.50
2022-08-08T05:32:42.561Z,17.50
2022-08-08T05:35:13.681Z,17.60
2022-08-08T05:37:52.140Z,17.60
2022-08-08T05:40:21.488Z,17.70
2022-08-08T05:42:59.523Z,17.80
2022-08-08T05:45:41.485Z,17.90
2022-08-08T05:48:17.477Z,18.00
2022-08-08T05:50:58.674Z,18.10
2022-08-08T05:54:24.379Z,18.20
2022-08-08T05:56:15.193Z,18.30
2022-08-08T05:58:53.809Z,18.40
2022-08-08T06:01:55.590Z,18.50
2022-08-08T06:04:22.798Z,18.60
2022-08-08T06:06:53.498Z,18.80
2022-08-08T06:09:59.842Z,18.90
2022-08-08T06:12:18.573Z,19.00
2022-08-08T06:14:58.256Z,19.20
2022-08-08T06:17:50.586Z,19.30
2022-08-08T06:20:13.968Z,19.40
2022-08-08T06:22:43.001Z,19.50
2022-08-08T06:25:10.319Z,19.60
2022-08-08T06:27:59.457Z,19.80
2022-08-08T06:30:29.045Z,19.90
2022-08-08T06:33:00.947Z,20.10
2022-08-08T06:36:07.274Z,20.30
2022-08-08T06:38:21.588Z,20.40
2022-08-08T06:41:03.946Z,20.50
2022-08-08T06:43:37.320Z,20.70
2022-08-08T06:46:09.161Z,20.90
2022-08-08T06:48:39.356Z,21.00
2022-08-08T06:51:12.344Z,21.10
2022-08-08T06:53:50.987Z,21.30
2022-08-08T06:56:24.137Z,21.40
2022-08-08T06:58:50.987Z,21.50
2022-08-08T07:02:17.738Z,21.60
2022-08-08T07:04:37.314Z,21.80
2022-08-08T07:07:10.499Z,22.00
2022-08-08T07:10:00.365Z,22.20
2022-08-08T07:12:40.982Z,22.50
2022-08-08T07:15:32.595Z,22.70
2022-08-08T07:18:35.852Z,23.00
2022-08-08T07:20:58.389Z,23.10
2022-08-08T07:24:01.818Z,23.20
2022-08-08T07:26:35.443Z,23.50
2022-08-08T07:29:05.340Z,23.60
2022-08-08T07:31:35.414Z,23.90
2022-08-08T07:34:08.843Z,24.10
2022-08-08T07:36:48.240Z,24.20
2022-08-08T07:39:29.646Z,24.30
2022-08-08T07:42:18.670Z,24.50
2022-08-08T07:44:47.403Z,24.80
2022-08-08T07:47:14.077Z,25.00
2022-08-08T07:49:40.821Z,24.90
2022-08-08T07:52:23.227Z,25.00
2022-08-08T07:55:17.242Z,25.20
2022-08-08T07:57:59.247Z,25.50
2022-08-08T08:00:34.037Z,25.80
2022-08-08T08:03:00.660Z,26.00
2022-08-08T08:05:33.671Z,26.20
2022-08-08T08:08:04.988Z,26.50
2022-08-08T08:10:35.457Z,26.80
2022-08-08T08:14:06.313Z,27.10
2022-08-08T08:16:32.450Z,27.50
2022-08-08T08:19:01.451Z,28.10
2022-08-08T08:21:52.879Z,28.50
2022-08-08T08:24:30.356Z,28.90
2022-08-08T08:26:57.614Z,29.40
2022-08-08T08:29:24.217Z,29.90
2022-08-08T08:31:58.328Z,30.30
2022-08-08T08:34:32.593Z,30.50
2022-08-08T08:37:03.261Z,31.60
2022-08-08T08:40:00.520Z,34.70
2022-08-08T08:42:29.313Z,37.50
2022-08-08T08:45:21.496Z,39.50
2022-08-08T08:47:53.418Z,41.20
2022-08-08T08:50:32.073Z,42.20
2022-08-08T08:53:27.415Z,42.80
2022-08-08T08:55:56.189Z,43.20
2022-08-08T08:58:35.573Z,43.70
2022-08-08T09:01:09.742Z,44.30
2022-08-08T09:03:47.561Z,44.70
2022-08-08T09:06:26.681Z,44.90
2022-08-08T09:09:26.230Z,45.00
2022-08-08T09:12:07.821Z,44.80
2022-08-08T09:14:35.379Z,44.90
2022-08-08T09:17:09.700Z,44.40
2022-08-08T09:22:00.707Z,45.20
2022-08-08T09:22:28.224Z,45.30
2022-08-08T09:24:56.287Z,45.20
2022-08-08T09:27:55.493Z,45.10
2022-08-08T09:30:17.893Z,45.10
2022-08-08T09:33:01.462Z,45.20
2022-08-08T09:35:39.293Z,45.70
2022-08-08T09:38:27.781Z,45.60
2022-08-08T09:41:01.306Z,45.90
2022-08-08T09:44:05.456Z,46.30
2022-08-08T09:46:25.380Z,46.60
2022-08-08T09:48:58.219Z,46.80
2022-08-08T09:52:07.504Z,46.80
2022-08-08T09:54:42.650Z,46.80
2022-08-08T09:57:17.274Z,47.10
2022-08-08T10:00:08.283Z,47.10
2022-08-08T10:02:38.404Z,47.00
2022-08-08T10:05:22.907Z,46.80
2022-08-08T10:07:52.327Z,46.90
2022-08-08T10:10:33.046Z,47.10
2022-08-08T10:13:06.183Z,47.10
2022-08-08T10:16:00.310Z,46.90
2022-08-08T10:18:37.346Z,46.80
2022-08-08T10:21:08.427Z,46.80
2022-08-08T10:23:58.798Z,47.00
2022-08-08T10:26:40.633Z,47.20
2022-08-08T10:29:20.815Z,47.10
2022-08-08T10:32:15.026Z,46.30
2022-08-08T10:34:51.119Z,45.80
2022-08-08T10:37:34.634Z,46.10
2022-08-08T10:40:16.159Z,46.70
2022-08-08T10:42:44.991Z,46.80
2022-08-08T10:45:12.340Z,46.90
2022-08-08T10:47:48.727Z,47.00
2022-08-08T10:50:23.603Z,46.90
2022-08-08T10:52:50.594Z,46.60
2022-08-08T10:55:40.951Z,46.60
2022-08-08T10:58:08.391Z,46.20
2022-08-08T11:00:48.517Z,45.50
2022-08-08T11:03:36.994Z,45.50
2022-08-08T11:06:12.575Z,45.40
2022-08-08T11:08:50.185Z,45.70
2022-08-08T11:11:32.543Z,46.60
2022-08-08T11:14:12.312Z,46.90
2022-08-08T11:16:46.742Z,46.90
2022-08-08T11:19:15.715Z,46.60
2022-08-08T11:21:54.235Z,46.30
2022-08-08T11:24:27.392Z,46.30
2022-08-08T11:26:58.064Z,46.20
2022-08-08T11:29:41.878Z,46.10
2022-08-08T11:32:16.464Z,46.20
2022-08-08T11:35:23.325Z,46.60
2022-08-08T11:38:37.247Z,46.60
2022-08-08T11:40:26.959Z,46.70
2022-08-08T11:43:00.003Z,46.50
2022-08-08T11:45:28.072Z,46.40
2022-08-08T11:48:05.178Z,46.70
2022-08-08T11:50:34.030Z,46.30
2022-08-08T11:53:06.230Z,46.10
2022-08-08T11:55:36.426Z,46.10
2022-08-08T11:58:08.459Z,45.70
2022-08-08T12:00:53.528Z,45.00
2022-08-08T12:03:21.207Z,44.50
2022-08-08T12:05:48.319Z,43.80
2022-08-08T12:08:15.777Z,42.70
2022-08-08T12:10:48.000Z,41.00
2022-08-08T12:13:21.350Z,39.50
2022-08-08T12:16:11.673Z,38.40
2022-08-08T12:18:47.455Z,37.20
2022-08-08T12:21:59.590Z,35.70
2022-08-08T12:24:17.191Z,35.10
2022-08-08T12:26:54.094Z,34.40
2022-08-08T12:29:40.085Z,33.70
2022-08-08T12:32:09.791Z,33.60
2022-08-08T12:35:01.387Z,33.40
2022-08-08T12:37:41.304Z,33.40
2022-08-08T12:40:23.618Z,33.40
2022-08-08T12:42:52.500Z,33.40
2022-08-08T12:45:57.959Z,33.10
2022-08-08T12:48:35.977Z,33.00
2022-08-08T12:51:03.452Z,33.00
2022-08-08T12:53:38.032Z,33.10
2022-08-08T12:56:17.651Z,33.00
2022-08-08T12:58:49.439Z,32.90
2022-08-08T13:01:16.171Z,32.90
2022-08-08T13:03:49.039Z,32.90
2022-08-08T13:06:20.285Z,32.90
2022-08-08T13:08:53.532Z,32.90
2022-08-08T13:12:19.767Z,32.90
2022-08-08T13:14:39.761Z,32.90
2022-08-08T13:17:54.428Z,32.50
2022-08-08T13:20:18.546Z,32.50
2022-08-08T13:22:46.022Z,32.50
2022-08-08T13:25:17.509Z,32.60
2022-08-08T13:27:44.534Z,32.70
2022-08-08T13:30:18.833Z,32.60
2022-08-08T13:32:54.196Z,32.70
2022-08-08T13:35:29.807Z,32.60
2022-08-08T13:38:08.592Z,32.60
2022-08-08T13:40:41.677Z,32.40
2022-08-08T13:43:12.936Z,32.20
2022-08-08T13:45:40.828Z,32.00
2022-08-08T13:48:19.661Z,32.00
2022-08-08T13:50:56.960Z,32.10
2022-08-08T13:53:34.089Z,32.20
2022-08-08T13:56:11.249Z,32.00
2022-08-08T13:58:57.191Z,31.80
2022-08-08T14:01:33.061Z,31.50
2022-08-08T14:04:21.428Z,31.50
2022-08-08T14:06:48.734Z,31.60
2022-08-08T14:09:25.441Z,31.60
2022-08-08T14:12:01.172Z,31.70
2022-08-08T14:14:41.632Z,31.80
2022-08-08T14:17:11.830Z,31.70
2022-08-08T14:19:54.287Z,31.80
2022-08-08T14:22:26.564Z,31.60
2022-08-08T14:24:59.845Z,31.20
2022-08-08T14:27:33.215Z,31.00
2022-08-08T14:30:18.153Z,31.00
2022-08-08T14:32:53.738Z,31.20
2022-08-08T14:35:24.773Z,31.20
2022-08-08T14:38:09.595Z,31.30
2022-08-08T14:40:53.295Z,31.20
2022-08-08T14:44:02.513Z,31.00
2022-08-08T14:48:59.119Z,30.90
2022-08-08T14:51:47.341Z,31.10
2022-08-08T14:54:13.987Z,31.20
2022-08-08T14:56:42.936Z,31.20
2022-08-08T14:59:22.555Z,31.20
2022-08-08T15:02:00.627Z,31.20
2022-08-08T15:04:27.910Z,31.10
2022-08-08T15:06:55.725Z,31.20
2022-08-08T15:09:23.141Z,31.10
2022-08-08T15:11:53.567Z,31.10
2022-08-08T15:14:26.355Z,31.00
2022-08-08T15:16:54.107Z,30.90
2022-08-08T15:19:21.278Z,31.00
2022-08-08T15:21:50.522Z,30.90
2022-08-08T15:24:17.309Z,30.90
2022-08-08T15:26:52.913Z,30.90
2022-08-08T15:29:22.696Z,30.80
2022-08-08T15:32:18.077Z,30.80
2022-08-08T15:34:37.668Z,30.70
2022-08-08T15:37:05.934Z,30.60
2022-08-08T15:39:38.461Z,30.60
2022-08-08T15:42:13.010Z,30.60
2022-08-08T15:44:45.777Z,30.60
2022-08-08T15:47:15.985Z,30.60
2022-08-08T15:49:47.555Z,30.60
2022-08-08T15:52:15.981Z,30.60
2022-08-08T15:54:46.201Z,30.50
2022-08-08T15:57:18.311Z,30.40
2022-08-08T16:00:05.501Z,30.30
2022-08-08T16:02:32.130Z,30.20
2022-08-08T16:05:00.769Z,30.20
2022-08-08T16:07:39.504Z,30.20
2022-08-08T16:13:04.463Z,30.10
2022-08-08T16:13:29.403Z,30.20
2022-08-08T16:15:58.083Z,30.00
2022-08-08T16:18:27.920Z,29.90
2022-08-08T16:21:00.065Z,29.90
2022-08-08T16:23:32.341Z,29.80
2022-08-08T16:26:04.127Z,29.70
2022-08-08T16:28:36.593Z,29.70
2022-08-08T16:31:06.420Z,29.70
2022-08-08T16:33:38.065Z,29.60
2022-08-08T16:36:09.715Z,29.60
2022-08-08T16:38:44.526Z,29.60
2022-08-08T16:41:18.298Z,29.50
2022-08-08T16:43:50.899Z,29.50
2022-08-08T16:46:43.737Z,29.50
2022-08-08T16:49:07.888Z,29.40
2022-08-08T16:55:03.981Z,29.30
2022-08-08T16:55:06.463Z,29.40
2022-08-08T16:57:27.743Z,29.20
2022-08-08T16:59:58.363Z,29.20
2022-08-08T17:02:38.012Z,29.10
2022-08-08T17:05:13.072Z,29.00
2022-08-08T17:07:42.015Z,28.90
2022-08-08T17:10:19.016Z,28.80
2022-08-08T17:12:53.156Z,28.80
2022-08-08T17:15:21.318Z,28.80
2022-08-08T17:18:02.321Z,28.70
2022-08-08T17:20:31.942Z,28.60
2022-08-08T17:23:16.740Z,28.50
2022-08-08T17:25:52.531Z,28.40
2022-08-08T17:28:35.381Z,28.40
2022-08-08T17:31:39.393Z,28.20
2022-08-08T17:34:48.384Z,28.10
2022-08-08T17:37:00.354Z,28.00
2022-08-08T17:40:04.905Z,27.90
2022-08-08T17:42:17.879Z,27.80
2022-08-08T17:44:45.415Z,27.70
2022-08-08T17:47:23.335Z,27.60
2022-08-08T17:49:51.750Z,27.50
2022-08-08T17:52:19.338Z,27.40
2022-08-08T17:54:46.471Z,27.30
2022-08-08T17:57:18.528Z,27.20
2022-08-08T17:59:45.607Z,27.10
2022-08-08T18:02:18.605Z,27.00
2022-08-08T18:04:50.933Z,26.90
2022-08-08T18:08:02.534Z,26.80
2022-08-08T18:10:05.152Z,26.80
2022-08-08T18:12:31.731Z,26.60
2022-08-08T18:14:58.620Z,26.50
2022-08-08T18:18:05.379Z,26.50
2022-08-08T18:20:44.410Z,26.40
2022-08-08T18:23:00.770Z,26.30
2022-08-08T18:25:28.428Z,26.20
2022-08-08T18:28:04.228Z,26.10
2022-08-08T18:30:31.854Z,25.90
2022-08-08T18:32:58.832Z,25.80
2022-08-08T18:35:34.266Z,25.80
2022-08-08T18:38:17.291Z,25.60
2022-08-08T18:40:46.545Z,25.60
2022-08-08T18:43:16.212Z,25.50
2022-08-08T18:46:53.434Z,25.30
2022-08-08T18:48:31.062Z,25.30
2022-08-08T18:50:59.073Z,25.20
2022-08-08T18:53:29.692Z,25.10
2022-08-08T18:56:23.747Z,25.00
2022-08-08T18:58:50.742Z,24.80
2022-08-08T19:02:24.969Z,24.70
2022-08-08T19:04:11.093Z,24.70
2022-08-08T19:06:39.472Z,24.50
2022-08-08T19:09:13.617Z,24.40
2022-08-08T19:11:46.354Z,24.30
2022-08-08T19:14:20.324Z,24.30
2022-08-08T19:16:47.745Z,24.20
2022-08-08T19:19:14.986Z,24.10
2022-08-08T19:21:49.782Z,24.00
2022-08-08T19:24:38.755Z,23.90
2022-08-08T19:27:05.717Z,23.80
2022-08-08T19:29:34.531Z,23.70
2022-08-08T19:32:02.505Z,23.60
2022-08-08T19:34:41.413Z,23.60
2022-08-08T19:37:16.019Z,23.50
2022-08-08T19:39:43.370Z,23.40
2022-08-08T19:42:12.628Z,23.30
2022-08-08T19:44:45.991Z,23.20
2022-08-08T19:47:15.813Z,23.20
2022-08-08T19:49:43.236Z,23.10
2022-08-08T19:52:13.507Z,23.10
2022-08-08T19:54:40.469Z,23.00
2022-08-08T19:57:09.980Z,22.90
2022-08-08T19:59:41.260Z,22.90
2022-08-08T20:02:10.742Z,22.80
2022-08-08T20:04:37.705Z,22.80
2022-08-08T20:08:39.311Z,22.70
2022-08-08T20:09:57.138Z,22.60
2022-08-08T20:12:32.123Z,22.60
2022-08-08T20:15:14.819Z,22.50
2022-08-08T20:17:45.865Z,22.50
2022-08-08T20:20:19.221Z,22.40
2022-08-08T20:22:52.444Z,22.40
2022-08-08T20:25:21.091Z,22.30
2022-08-08T20:27:49.345Z,22.30
2022-08-08T20:30:52.523Z,22.20
2022-08-08T20:33:08.046Z,22.20
2022-08-08T20:35:57.987Z,22.10
2022-08-08T20:38:22.264Z,22.10
2022-08-08T20:40:59.211Z,22.10
2022-08-08T20:43:43.127Z,22.00
2022-08-08T20:46:12.743Z,21.90
2022-08-08T20:48:39.403Z,21.90
2022-08-08T20:51:08.718Z,21.90
2022-08-08T20:53:58.352Z,21.80
2022-08-08T20:56:35.365Z,21.80
2022-08-08T20:59:05.859Z,21.70
2022-08-08T21:02:06.433Z,21.70
2022-08-08T21:04:20.752Z,21.70
2022-08-08T21:06:52.505Z,21.70
2022-08-08T21:09:21.512Z,21.70
2022-08-08T21:11:51.568Z,21.70
2022-08-08T21:14:30.260Z,21.60
2022-08-08T21:17:06.127Z,21.60
2022-08-08T21:19:45.959Z,21.70
2022-08-08T21:22:15.340Z,21.70
2022-08-08T21:24:53.606Z,21.60
2022-08-08T21:28:05.679Z,21.60
2022-08-08T21:30:17.986Z,21.60
2022-08-08T21:32:51.615Z,21.60
2022-08-08T21:36:13.965Z,21.50
2022-08-08T21:38:16.179Z,21.50
2022-08-08T21:40:55.964Z,21.40
2022-08-08T21:43:24.963Z,21.40
2022-08-08T21:48:21.280Z,21.40
2022-08-08T21:48:44.428Z,21.30
2022-08-08T21:51:15.807Z,21.30
2022-08-08T21:54:27.093Z,21.30
2022-08-08T21:56:42.142Z,21.20
2022-08-08T21:59:11.082Z,21.20
2022-08-08T22:01:42.526Z,21.10
2022-08-08T22:04:11.443Z,21.10
2022-08-08T22:06:40.536Z,21.10
2022-08-08T22:09:09.615Z,21.10
2022-08-08T22:11:48.266Z,21.00
2022-08-08T22:14:26.677Z,21.00
2022-08-08T22:16:54.171Z,21.00
2022-08-08T22:19:24.042Z,20.90
2022-08-08T22:21:51.790Z,20.90
2022-08-08T22:24:28.401Z,20.80
2022-08-08T22:27:01.501Z,20.80
2022-08-08T22:29:58.587Z,20.80
2022-08-08T22:32:19.047Z,20.70
2022-08-08T22:34:50.826Z,20.70
2022-08-08T22:37:49.826Z,20.70
2022-08-08T22:40:07.243Z,20.60
2022-08-08T22:42:38.867Z,20.60
2022-08-08T22:45:12.449Z,20.60
2022-08-08T22:47:41.200Z,20.50
2022-08-08T22:50:26.514Z,20.50
2022-08-08T22:54:30.755Z,20.50
2022-08-08T22:55:59.191Z,20.50
2022-08-08T22:58:33.922Z,20.40
2022-08-08T23:02:01.212Z,20.40
2022-08-08T23:03:53.830Z,20.40
2022-08-08T23:06:22.656Z,20.30
2022-08-08T23:08:55.220Z,20.30
2022-08-08T23:11:31.147Z,20.30
2022-08-08T23:14:11.768Z,20.20
2022-08-08T23:16:46.994Z,20.20
2022-08-08T23:19:16.311Z,20.20
2022-08-08T23:21:43.067Z,20.10
2022-08-08T23:24:13.637Z,20.10
2022-08-08T23:26:55.484Z,20.10
2022-08-08T23:29:25.219Z,20.10
2022-08-08T23:31:52.361Z,20.00
2022-08-08T23:34:19.899Z,20.00
2022-08-08T23:36:47.965Z,20.00
2022-08-08T23:39:15.647Z,20.10
2022-08-08T23:41:46.813Z,20.00
2022-08-08T23:44:14.565Z,20.00
2022-08-08T23:49:01.099Z,19.90
2022-08-08T23:49:28.350Z,19.90
2022-08-08T23:52:06.173Z,19.80
2022-08-08T23:54:41.666Z,19.80
2022-08-08T23:57:26.431Z,19.80
